sensor_id;sensor_type;location;lat;lon;timestamp;pressure;altitude;pressure_sealevel;temperature;humidity
42601;BME280;28229;48.856;9.088;2023-02-02T00:01:54;98535.53;;;4.84;79.01
42601;BME280;28229;48.856;9.088;2023-02-02T00:04:23;98538.94;;;4.84;78.87
42601;BME280;28229;48.856;9.088;2023-02-02T00:06:50;98530.47;;;4.82;79.31
42601;BME280;28229;48.856;9.088;2023-02-02T00:09:18;98527.19;;;4.88;78.78
42601;BME280;28229;48.856;9.088;2023-02-02T00:11:45;98537.31;;;4.83;79.17
42601;BME280;28229;48.856;9.088;2023-02-02T00:14:12;98530.94;;;4.86;79.15
42601;BME280;28229;48.856;9.088;2023-02-02T00:16:41;98519.88;;;4.84;78.79
42601;BME280;28229;48.856;9.088;2023-02-02T00:19:12;98519.38;;;4.88;78.71
42601;BME280;28229;48.856;9.088;2023-02-02T00:21:39;98527.03;;;4.90;78.79
42601;BME280;28229;48.856;9.088;2023-02-02T00:24:10;98537.28;;;4.91;78.21
42601;BME280;28229;48.856;9.088;2023-02-02T00:26:37;98541.53;;;4.92;78.67
42601;BME280;28229;48.856;9.088;2023-02-02T00:29:05;98544.94;;;4.93;78.80
42601;BME280;28229;48.856;9.088;2023-02-02T00:31:32;98538.59;;;4.87;79.08
42601;BME280;28229;48.856;9.088;2023-02-02T00:33:59;98541.53;;;4.92;79.33
42601;BME280;28229;48.856;9.088;2023-02-02T00:36:25;98543.81;;;4.95;79.10
42601;BME280;28229;48.856;9.088;2023-02-02T00:38:51;98545.59;;;4.95;79.51
42601;BME280;28229;48.856;9.088;2023-02-02T00:41:18;98544.78;;;4.94;79.65
42601;BME280;28229;48.856;9.088;2023-02-02T00:43:45;98534.53;;;4.93;79.61
42601;BME280;28229;48.856;9.088;2023-02-02T00:46:32;98539.91;;;4.91;79.71
42601;BME280;28229;48.856;9.088;2023-02-02T00:48:58;98530.47;;;4.90;79.98
42601;BME280;28229;48.856;9.088;2023-02-02T00:51:24;98533.06;;;4.90;80.31
42601;BME280;28229;48.856;9.088;2023-02-02T00:53:51;98525.91;;;4.92;80.27
42601;BME280;28229;48.856;9.088;2023-02-02T00:56:17;98534.84;;;4.90;80.36
42601;BME280;28229;48.856;9.088;2023-02-02T00:58:43;98532.72;;;4.93;80.67
42601;BME280;28229;48.856;9.088;2023-02-02T01:01:17;98515.47;;;4.92;81.04
42601;BME280;28229;48.856;9.088;2023-02-02T01:03:44;98514.81;;;4.90;80.92
42601;BME280;28229;48.856;9.088;2023-02-02T01:06:10;98522.66;;;4.90;81.05
42601;BME280;28229;48.856;9.088;2023-02-02T01:08:37;98527.84;;;4.90;81.31
42601;BME280;28229;48.856;9.088;2023-02-02T01:11:04;98524.25;;;4.91;81.25
42601;BME280;28229;48.856;9.088;2023-02-02T01:13:32;98533.06;;;4.90;81.52
42601;BME280;28229;48.856;9.088;2023-02-02T01:15:59;98529.78;;;4.88;81.88
42601;BME280;28229;48.856;9.088;2023-02-02T01:18:27;98532.06;;;4.91;82.25
42601;BME280;28229;48.856;9.088;2023-02-02T01:21:00;98534.03;;;4.89;82.54
42601;BME280;28229;48.856;9.088;2023-02-02T01:23:27;98539.41;;;4.88;83.34
42601;BME280;28229;48.856;9.088;2023-02-02T01:25:55;98531.75;;;4.86;83.55
42601;BME280;28229;48.856;9.088;2023-02-02T01:28:22;98531.44;;;4.89;83.51
42601;BME280;28229;48.856;9.088;2023-02-02T01:30:48;98540.56;;;4.85;84.22
42601;BME280;28229;48.856;9.088;2023-02-02T01:33:15;98544.78;;;4.86;84.49
42601;BME280;28229;48.856;9.088;2023-02-02T01:35:47;98554.56;;;4.84;84.84
42601;BME280;28229;48.856;9.088;2023-02-02T01:38:14;98553.28;;;4.80;85.38
42601;BME280;28229;48.856;9.088;2023-02-02T01:40:54;98548.56;;;4.75;85.39
42601;BME280;28229;48.856;9.088;2023-02-02T01:43:25;98549.19;;;4.77;85.74
42601;BME280;28229;48.856;9.088;2023-02-02T01:45:52;98560.63;;;4.76;85.83
42601;BME280;28229;48.856;9.088;2023-02-02T01:48:21;98550.84;;;4.79;85.91
42601;BME280;28229;48.856;9.088;2023-02-02T01:50:52;98550.69;;;4.80;85.98
42601;BME280;28229;48.856;9.088;2023-02-02T01:53:21;98552.47;;;4.80;86.03
42601;BME280;28229;48.856;9.088;2023-02-02T01:55:47;98553.94;;;4.74;86.07
42601;BME280;28229;48.856;9.088;2023-02-02T01:58:18;98559.63;;;4.77;86.04
42601;BME280;28229;48.856;9.088;2023-02-02T02:00:45;98550.69;;;4.80;86.07
42601;BME280;28229;48.856;9.088;2023-02-02T02:03:14;98548.22;;;4.79;85.92
42601;BME280;28229;48.856;9.088;2023-02-02T02:05:44;98544.47;;;4.81;86.20
42601;BME280;28229;48.856;9.088;2023-02-02T02:08:18;98529.81;;;4.80;86.37
42601;BME280;28229;48.856;9.088;2023-02-02T02:10:45;98527.69;;;4.84;86.73
42601;BME280;28229;48.856;9.088;2023-02-02T02:13:12;98532.44;;;4.80;87.10
42601;BME280;28229;48.856;9.088;2023-02-02T02:15:46;98542.53;;;4.83;87.51
42601;BME280;28229;48.856;9.088;2023-02-02T02:18:43;98539.25;;;4.81;87.67
42601;BME280;28229;48.856;9.088;2023-02-02T02:24:56;98545.78;;;4.85;87.25
42601;BME280;28229;48.856;9.088;2023-02-02T02:33:46;98542.34;;;4.85;87.45
42601;BME280;28229;48.856;9.088;2023-02-02T02:39:14;98545.63;;;4.79;87.36
42601;BME280;28229;48.856;9.088;2023-02-02T02:41:48;98531.16;;;4.76;87.88
42601;BME280;28229;48.856;9.088;2023-02-02T02:44:15;98536.16;;;4.77;88.02
42601;BME280;28229;48.856;9.088;2023-02-02T02:46:44;98544.81;;;4.78;87.89
42601;BME280;28229;48.856;9.088;2023-02-02T02:49:11;98551.00;;;4.77;87.93
42601;BME280;28229;48.856;9.088;2023-02-02T02:51:49;98550.03;;;4.78;88.55
42601;BME280;28229;48.856;9.088;2023-02-02T02:54:34;98544.66;;;4.71;88.38
42601;BME280;28229;48.856;9.088;2023-02-02T03:05:35;98554.91;;;4.81;88.28
42601;BME280;28229;48.856;9.088;2023-02-02T03:08:19;98541.22;;;4.79;88.39
42601;BME280;28229;48.856;9.088;2023-02-02T03:10:50;98557.19;;;4.84;87.98
42601;BME280;28229;48.856;9.088;2023-02-02T03:13:40;98547.75;;;4.83;87.87
42601;BME280;28229;48.856;9.088;2023-02-02T03:16:08;98544.16;;;4.84;88.13
42601;BME280;28229;48.856;9.088;2023-02-02T03:18:35;98546.91;;;4.83;87.91
42601;BME280;28229;48.856;9.088;2023-02-02T03:21:01;98541.53;;;4.84;88.15
42601;BME280;28229;48.856;9.088;2023-02-02T03:23:28;98536.97;;;4.86;87.62
42601;BME280;28229;48.856;9.088;2023-02-02T03:25:54;98535.84;;;4.89;87.40
42601;BME280;28229;48.856;9.088;2023-02-02T03:28:22;98540.22;;;4.88;87.70
42601;BME280;28229;48.856;9.088;2023-02-02T03:30:49;98539.75;;;4.85;87.41
42601;BME280;28229;48.856;9.088;2023-02-02T03:33:16;98532.22;;;4.90;87.41
42601;BME280;28229;48.856;9.088;2023-02-02T03:35:43;98536.47;;;4.91;87.46
42601;BME280;28229;48.856;9.088;2023-02-02T03:38:10;98538.94;;;4.84;87.31
42601;BME280;28229;48.856;9.088;2023-02-02T03:40:38;98531.44;;;4.89;87.33
42601;BME280;28229;48.856;9.088;2023-02-02T03:43:04;98526.22;;;4.89;87.59
42601;BME280;28229;48.856;9.088;2023-02-02T03:45:32;98538.44;;;4.89;87.47
42601;BME280;28229;48.856;9.088;2023-02-02T03:48:03;98530.47;;;4.90;87.54
42601;BME280;28229;48.856;9.088;2023-02-02T03:50:29;98525.25;;;4.90;87.48
42601;BME280;28229;48.856;9.088;2023-02-02T03:52:55;98548.72;;;4.90;87.23
42601;BME280;28229;48.856;9.088;2023-02-02T03:55:21;98539.25;;;4.89;87.51
42601;BME280;28229;48.856;9.088;2023-02-02T03:57:48;98553.56;;;4.93;87.87
42601;BME280;28229;48.856;9.088;2023-02-02T04:00:14;98547.56;;;4.93;87.57
42601;BME280;28229;48.856;9.088;2023-02-02T04:02:41;98546.75;;;4.92;87.63
42601;BME280;28229;48.856;9.088;2023-02-02T04:05:07;98552.13;;;4.91;87.33
42601;BME280;28229;48.856;9.088;2023-02-02T04:07:34;98541.38;;;4.94;87.23
42601;BME280;28229;48.856;9.088;2023-02-02T04:10:00;98548.03;;;4.96;87.02
42601;BME280;28229;48.856;9.088;2023-02-02T04:12:26;98552.44;;;4.96;87.41
42601;BME280;28229;48.856;9.088;2023-02-02T04:14:52;98546.28;;;4.89;87.27
42601;BME280;28229;48.856;9.088;2023-02-02T04:17:18;98565.66;;;4.94;87.35
42601;BME280;28229;48.856;9.088;2023-02-02T04:19:44;98567.41;;;5.02;87.11
42601;BME280;28229;48.856;9.088;2023-02-02T04:22:11;98564.97;;;5.01;87.30
42601;BME280;28229;48.856;9.088;2023-02-02T04:24:37;98574.28;;;5.03;86.91
42601;BME280;28229;48.856;9.088;2023-02-02T04:27:03;98573.28;;;5.04;86.85
42601;BME280;28229;48.856;9.088;2023-02-02T04:29:29;98583.91;;;5.03;86.56
42601;BME280;28229;48.856;9.088;2023-02-02T04:31:56;98575.06;;;5.04;87.09
42601;BME280;28229;48.856;9.088;2023-02-02T04:34:23;98576.06;;;5.03;86.95
42601;BME280;28229;48.856;9.088;2023-02-02T04:36:49;98575.88;;;5.04;86.82
42601;BME280;28229;48.856;9.088;2023-02-02T04:39:15;98576.25;;;5.01;86.84
42601;BME280;28229;48.856;9.088;2023-02-02T04:41:41;98582.59;;;5.07;86.52
42601;BME280;28229;48.856;9.088;2023-02-02T04:44:12;98598.72;;;5.10;86.49
42601;BME280;28229;48.856;9.088;2023-02-02T04:46:40;98588.44;;;5.09;86.60
42601;BME280;28229;48.856;9.088;2023-02-02T04:49:08;98598.88;;;5.09;86.29
42601;BME280;28229;48.856;9.088;2023-02-02T04:51:35;98606.38;;;5.04;86.50
42601;BME280;28229;48.856;9.088;2023-02-02T04:54:02;98607.84;;;5.06;86.53
42601;BME280;28229;48.856;9.088;2023-02-02T04:56:28;98610.09;;;5.09;86.63
42601;BME280;28229;48.856;9.088;2023-02-02T04:58:55;98605.25;;;5.06;86.05
42601;BME280;28229;48.856;9.088;2023-02-02T05:01:21;98605.06;;;5.08;86.23
42601;BME280;28229;48.856;9.088;2023-02-02T05:03:48;98615.19;;;5.03;86.61
42601;BME280;28229;48.856;9.088;2023-02-02T05:06:15;98607.66;;;5.08;86.49
42601;BME280;28229;48.856;9.088;2023-02-02T05:08:42;98616.47;;;5.07;87.07
42601;BME280;28229;48.856;9.088;2023-02-02T05:11:09;98610.63;;;4.96;87.13
42601;BME280;28229;48.856;9.088;2023-02-02T05:13:36;98613.88;;;4.99;86.80
42601;BME280;28229;48.856;9.088;2023-02-02T05:16:03;98622.19;;;5.02;86.79
42601;BME280;28229;48.856;9.088;2023-02-02T05:18:29;98615.84;;;5.05;86.65
42601;BME280;28229;48.856;9.088;2023-02-02T05:21:00;98625.13;;;5.07;86.75
42601;BME280;28229;48.856;9.088;2023-02-02T05:23:28;98632.44;;;5.04;86.74
42601;BME280;28229;48.856;9.088;2023-02-02T05:25:55;98620.53;;;5.09;86.37
42601;BME280;28229;48.856;9.088;2023-02-02T05:28:22;98621.69;;;5.07;86.61
42601;BME280;28229;48.856;9.088;2023-02-02T05:30:48;98631.81;;;5.10;86.45
42601;BME280;28229;48.856;9.088;2023-02-02T05:33:15;98640.28;;;5.12;86.58
42601;BME280;28229;48.856;9.088;2023-02-02T05:35:47;98627.72;;;5.15;86.02
42601;BME280;28229;48.856;9.088;2023-02-02T05:38:14;98633.44;;;5.11;86.33
42601;BME280;28229;48.856;9.088;2023-02-02T05:40:41;98631.13;;;5.08;86.65
42601;BME280;28229;48.856;9.088;2023-02-02T05:43:07;98633.44;;;5.11;86.38
42601;BME280;28229;48.856;9.088;2023-02-02T05:45:33;98629.00;;;5.11;86.32
42601;BME280;28229;48.856;9.088;2023-02-02T05:47:59;98634.38;;;5.18;85.81
42601;BME280;28229;48.856;9.088;2023-02-02T05:50:26;98620.88;;;5.14;86.18
42601;BME280;28229;48.856;9.088;2023-02-02T05:53:01;98639.94;;;5.15;86.00
42601;BME280;28229;48.856;9.088;2023-02-02T05:55:27;98630.81;;;5.19;86.11
42601;BME280;28229;48.856;9.088;2023-02-02T05:57:54;98630.81;;;5.19;86.04
42601;BME280;28229;48.856;9.088;2023-02-02T06:00:21;98621.50;;;5.17;86.26
42601;BME280;28229;48.856;9.088;2023-02-02T06:02:47;98631.13;;;5.16;86.25
42601;BME280;28229;48.856;9.088;2023-02-02T06:05:13;98623.63;;;5.13;86.29
42601;BME280;28229;48.856;9.088;2023-02-02T06:07:39;98625.91;;;5.16;86.32
42601;BME280;28229;48.856;9.088;2023-02-02T06:10:06;98622.66;;;5.14;86.43
42601;BME280;28229;48.856;9.088;2023-02-02T06:12:32;98625.28;;;5.14;86.16
42601;BME280;28229;48.856;9.088;2023-02-02T06:14:58;98639.94;;;5.15;85.61
42601;BME280;28229;48.856;9.088;2023-02-02T06:17:26;98637.16;;;5.17;85.70
42601;BME280;28229;48.856;9.088;2023-02-02T06:19:52;98632.94;;;5.15;85.78
42601;BME280;28229;48.856;9.088;2023-02-02T06:22:18;98642.38;;;5.17;85.82
42601;BME280;28229;48.856;9.088;2023-02-02T06:24:44;98646.31;;;5.21;85.63
42601;BME280;28229;48.856;9.088;2023-02-02T06:27:30;98648.06;;;5.20;85.54
42601;BME280;28229;48.856;9.088;2023-02-02T06:29:57;98648.06;;;5.20;85.78
42601;BME280;28229;48.856;9.088;2023-02-02T06:32:23;98664.09;;;5.17;86.25
42601;BME280;28229;48.856;9.088;2023-02-02T06:34:49;98661.47;;;5.17;86.67
42601;BME280;28229;48.856;9.088;2023-02-02T06:37:15;98669.63;;;5.14;86.43
42601;BME280;28229;48.856;9.088;2023-02-02T06:39:41;98667.66;;;5.16;86.23
42601;BME280;28229;48.856;9.088;2023-02-02T06:42:07;98660.78;;;5.15;86.38
42601;BME280;28229;48.856;9.088;2023-02-02T06:44:33;98669.47;;;5.15;86.42
42601;BME280;28229;48.856;9.088;2023-02-02T06:46:59;98652.00;;;5.16;86.76
42601;BME280;28229;48.856;9.088;2023-02-02T06:49:26;98661.78;;;5.14;86.69
42601;BME280;28229;48.856;9.088;2023-02-02T06:51:52;98670.59;;;5.13;87.15
42601;BME280;28229;48.856;9.088;2023-02-02T06:54:18;98672.88;;;5.16;86.74
42601;BME280;28229;48.856;9.088;2023-02-02T06:56:44;98673.84;;;5.15;86.99
42601;BME280;28229;48.856;9.088;2023-02-02T06:59:10;98668.81;;;5.13;86.90
42601;BME280;28229;48.856;9.088;2023-02-02T07:01:36;98671.22;;;5.15;86.83
42601;BME280;28229;48.856;9.088;2023-02-02T07:04:03;98673.19;;;5.21;88.95
42601;BME280;28229;48.856;9.088;2023-02-02T07:06:29;98671.25;;;5.31;87.53
42601;BME280;28229;48.856;9.088;2023-02-02T07:08:56;98667.31;;;5.27;86.77
42601;BME280;28229;48.856;9.088;2023-02-02T07:11:22;98668.00;;;5.29;87.24
42601;BME280;28229;48.856;9.088;2023-02-02T07:13:48;98680.03;;;5.30;85.95
42601;BME280;28229;48.856;9.088;2023-02-02T07:16:18;98679.72;;;5.25;85.97
42601;BME280;28229;48.856;9.088;2023-02-02T07:18:45;98671.41;;;5.22;86.08
42601;BME280;28229;48.856;9.088;2023-02-02T07:21:16;98671.25;;;5.23;86.49
42601;BME280;28229;48.856;9.088;2023-02-02T07:26:38;98674.81;;;5.22;85.93
42601;BME280;28229;48.856;9.088;2023-02-02T07:29:04;98680.03;;;5.22;85.75
42601;BME280;28229;48.856;9.088;2023-02-02T07:31:31;98686.09;;;5.23;86.00
42601;BME280;28229;48.856;9.088;2023-02-02T07:33:57;98687.84;;;5.22;86.16
42601;BME280;28229;48.856;9.088;2023-02-02T07:36:24;98697.31;;;5.23;85.85
42601;BME280;28229;48.856;9.088;2023-02-02T07:38:52;98695.53;;;5.24;85.36
42601;BME280;28229;48.856;9.088;2023-02-02T07:41:27;98688.53;;;5.24;85.41
42601;BME280;28229;48.856;9.088;2023-02-02T07:43:53;98684.28;;;5.23;85.81
42601;BME280;28229;48.856;9.088;2023-02-02T07:46:20;98687.06;;;5.22;86.37
42601;BME280;28229;48.856;9.088;2023-02-02T07:48:47;98679.06;;;5.23;85.23
42601;BME280;28229;48.856;9.088;2023-02-02T07:51:15;98691.13;;;5.24;85.25
42601;BME280;28229;48.856;9.088;2023-02-02T07:53:44;98680.22;;;5.21;85.29
42601;BME280;28229;48.856;9.088;2023-02-02T07:56:16;98667.81;;;5.23;85.00
42601;BME280;28229;48.856;9.088;2023-02-02T07:58:42;98669.28;;;5.25;84.89
42601;BME280;28229;48.856;9.088;2023-02-02T08:01:11;98677.59;;;5.29;85.13
42601;BME280;28229;48.856;9.088;2023-02-02T08:03:38;98680.03;;;5.30;84.38
42601;BME280;28229;48.856;9.088;2023-02-02T08:06:13;98666.19;;;5.30;84.77
42601;BME280;28229;48.856;9.088;2023-02-02T08:08:41;98670.88;;;5.34;84.60
42601;BME280;28229;48.856;9.088;2023-02-02T08:11:09;98675.63;;;5.39;84.63
42601;BME280;28229;48.856;9.088;2023-02-02T08:13:40;98683.94;;;5.43;84.64
42601;BME280;28229;48.856;9.088;2023-02-02T08:16:07;98683.94;;;5.43;83.83
42601;BME280;28229;48.856;9.088;2023-02-02T08:18:33;98692.41;;;5.45;84.36
42601;BME280;28229;48.856;9.088;2023-02-02T08:21:00;98702.53;;;5.48;84.29
42601;BME280;28229;48.856;9.088;2023-02-02T08:23:27;98711.47;;;5.53;83.24
42601;BME280;28229;48.856;9.088;2023-02-02T08:26:03;98711.63;;;5.60;82.20
42601;BME280;28229;48.856;9.088;2023-02-02T08:28:29;98717.34;;;5.64;82.60
42601;BME280;28229;48.856;9.088;2023-02-02T08:30:55;98725.34;;;5.62;82.39
42601;BME280;28229;48.856;9.088;2023-02-02T08:33:22;98735.47;;;5.65;81.75
42601;BME280;28229;48.856;9.088;2023-02-02T08:35:48;98725.00;;;5.65;81.69
42601;BME280;28229;48.856;9.088;2023-02-02T08:38:14;98737.06;;;5.66;82.00
42601;BME280;28229;48.856;9.088;2023-02-02T08:40:40;98737.75;;;5.60;82.57
42601;BME280;28229;48.856;9.088;2023-02-02T08:43:06;98743.94;;;5.59;82.62
42601;BME280;28229;48.856;9.088;2023-02-02T08:45:33;98757.16;;;5.58;83.23
42601;BME280;28229;48.856;9.088;2023-02-02T08:47:59;98749.00;;;5.61;82.95
42601;BME280;28229;48.856;9.088;2023-02-02T08:50:25;98753.41;;;5.60;83.64
42601;BME280;28229;48.856;9.088;2023-02-02T08:52:51;98756.00;;;5.60;83.45
42601;BME280;28229;48.856;9.088;2023-02-02T08:55:17;98760.44;;;5.60;83.85
42601;BME280;28229;48.856;9.088;2023-02-02T08:57:44;98740.34;;;5.60;84.23
42601;BME280;28229;48.856;9.088;2023-02-02T09:00:10;98755.03;;;5.53;84.35
42601;BME280;28229;48.856;9.088;2023-02-02T09:02:38;98762.03;;;5.52;84.89
42601;BME280;28229;48.856;9.088;2023-02-02T09:05:05;98749.81;;;5.53;85.34
42601;BME280;28229;48.856;9.088;2023-02-02T09:07:32;98762.53;;;5.56;84.34
42601;BME280;28229;48.856;9.088;2023-02-02T09:09:58;98754.88;;;5.55;84.92
42601;BME280;28229;48.856;9.088;2023-02-02T09:12:25;98751.59;;;5.52;84.83
42601;BME280;28229;48.856;9.088;2023-02-02T09:14:51;98759.28;;;5.54;84.90
42601;BME280;28229;48.856;9.088;2023-02-02T09:17:18;98757.31;;;5.56;85.07
42601;BME280;28229;48.856;9.088;2023-02-02T09:19:44;98762.22;;;5.59;85.20
42601;BME280;28229;48.856;9.088;2023-02-02T09:22:10;98771.84;;;5.50;85.62
42601;BME280;28229;48.856;9.088;2023-02-02T09:24:36;98773.63;;;5.50;86.05
42601;BME280;28229;48.856;9.088;2023-02-02T09:27:02;98773.31;;;5.53;86.06
42601;BME280;28229;48.856;9.088;2023-02-02T09:29:29;98773.63;;;5.50;86.23
42601;BME280;28229;48.856;9.088;2023-02-02T09:31:55;98766.78;;;5.49;86.22
42601;BME280;28229;48.856;9.088;2023-02-02T09:34:21;98777.22;;;5.49;86.30
42601;BME280;28229;48.856;9.088;2023-02-02T09:37:07;98779.19;;;5.55;86.33
42601;BME280;28229;48.856;9.088;2023-02-02T09:39:33;98769.72;;;5.54;86.11
42601;BME280;28229;48.856;9.088;2023-02-02T09:44:44;98790.25;;;5.49;86.84
42601;BME280;28229;48.856;9.088;2023-02-02T09:47:19;98789.63;;;5.47;87.73
42601;BME280;28229;48.856;9.088;2023-02-02T09:52:41;98800.06;;;5.47;88.83
42601;BME280;28229;48.856;9.088;2023-02-02T09:55:22;98801.03;;;5.46;88.80
42601;BME280;28229;48.856;9.088;2023-02-02T09:57:54;98814.41;;;5.43;88.66
42601;BME280;28229;48.856;9.088;2023-02-02T10:03:20;98818.34;;;5.39;89.04
42601;BME280;28229;48.856;9.088;2023-02-02T10:05:54;98815.06;;;5.37;89.43
42601;BME280;28229;48.856;9.088;2023-02-02T10:08:30;98803.00;;;5.44;88.05
42601;BME280;28229;48.856;9.088;2023-02-02T10:11:00;98798.44;;;5.46;88.19
42601;BME280;28229;48.856;9.088;2023-02-02T10:13:31;98796.16;;;5.51;87.94
42601;BME280;28229;48.856;9.088;2023-02-02T10:16:04;98797.78;;;5.52;87.52
42601;BME280;28229;48.856;9.088;2023-02-02T10:18:35;98794.84;;;5.47;87.46
42601;BME280;28229;48.856;9.088;2023-02-02T10:21:16;98810.97;;;5.50;86.85
42601;BME280;28229;48.856;9.088;2023-02-02T10:23:48;98804.63;;;5.53;86.28
42601;BME280;28229;48.856;9.088;2023-02-02T10:26:53;98814.09;;;5.54;85.63
42601;BME280;28229;48.856;9.088;2023-02-02T10:32:15;98806.91;;;5.56;85.89
42601;BME280;28229;48.856;9.088;2023-02-02T10:35:14;98806.25;;;5.54;86.08
42601;BME280;28229;48.856;9.088;2023-02-02T10:37:55;98808.53;;;5.57;86.45
42601;BME280;28229;48.856;9.088;2023-02-02T10:43:29;98799.88;;;5.65;85.38
42601;BME280;28229;48.856;9.088;2023-02-02T10:46:27;98814.75;;;5.64;85.79
42601;BME280;28229;48.856;9.088;2023-02-02T10:49:10;98811.66;;;5.69;85.19
42601;BME280;28229;48.856;9.088;2023-02-02T10:51:38;98821.94;;;5.70;84.48
42601;BME280;28229;48.856;9.088;2023-02-02T10:54:28;98819.63;;;5.76;84.71
42601;BME280;28229;48.856;9.088;2023-02-02T10:57:01;98815.72;;;5.80;85.02
42601;BME280;28229;48.856;9.088;2023-02-02T10:59:32;98806.88;;;5.81;84.49
42601;BME280;28229;48.856;9.088;2023-02-02T11:02:00;98806.72;;;5.90;83.18
42601;BME280;28229;48.856;9.088;2023-02-02T11:04:28;98792.69;;;5.91;83.10
42601;BME280;28229;48.856;9.088;2023-02-02T11:07:12;98803.97;;;5.92;82.63
42601;BME280;28229;48.856;9.088;2023-02-02T11:09:45;98812.16;;;5.97;83.47
42601;BME280;28229;48.856;9.088;2023-02-02T11:12:30;98790.25;;;5.98;83.37
42601;BME280;28229;48.856;9.088;2023-02-02T11:15:00;98805.59;;;6.01;82.24
42601;BME280;28229;48.856;9.088;2023-02-02T11:17:27;98799.84;;;6.06;82.46
42601;BME280;28229;48.856;9.088;2023-02-02T11:19:53;98786.63;;;6.07;82.03
42601;BME280;28229;48.856;9.088;2023-02-02T11:22:32;98788.28;;;6.08;82.75
42601;BME280;28229;48.856;9.088;2023-02-02T11:25:25;98794.47;;;6.16;81.63
42601;BME280;28229;48.856;9.088;2023-02-02T11:27:47;98794.13;;;6.19;80.93
42601;BME280;28229;48.856;9.088;2023-02-02T11:30:26;98794.13;;;6.19;81.20
42601;BME280;28229;48.856;9.088;2023-02-02T11:32:53;98792.81;;;6.15;80.31
42601;BME280;28229;48.856;9.088;2023-02-02T11:35:21;98796.06;;;6.17;81.59
42601;BME280;28229;48.856;9.088;2023-02-02T11:38:08;98800.00;;;6.21;81.61
42601;BME280;28229;48.856;9.088;2023-02-02T11:40:38;98804.22;;;6.22;80.85
42601;BME280;28229;48.856;9.088;2023-02-02T11:45:43;98799.69;;;6.16;81.85
42601;BME280;28229;48.856;9.088;2023-02-02T11:48:21;98801.66;;;6.14;82.78
42601;BME280;28229;48.856;9.088;2023-02-02T11:50:51;98791.53;;;6.10;82.81
42601;BME280;28229;48.856;9.088;2023-02-02T11:53:28;98800.06;;;6.04;82.37
42601;BME280;28229;48.856;9.088;2023-02-02T11:55:56;98797.09;;;6.07;82.46
42601;BME280;28229;48.856;9.088;2023-02-02T11:59:11;98797.09;;;6.07;82.56
42601;BME280;28229;48.856;9.088;2023-02-02T12:01:24;98816.00;;;6.09;82.38
42601;BME280;28229;48.856;9.088;2023-02-02T12:03:53;98792.84;;;6.06;81.54
42601;BME280;28229;48.856;9.088;2023-02-02T12:06:25;98793.88;;;5.97;83.59
42601;BME280;28229;48.856;9.088;2023-02-02T12:08:56;98775.06;;;5.94;82.42
42601;BME280;28229;48.856;9.088;2023-02-02T12:11:33;98783.38;;;5.89;82.71
42601;BME280;28229;48.856;9.088;2023-02-02T12:14:12;98798.56;;;5.85;84.33
42601;BME280;28229;48.856;9.088;2023-02-02T12:16:54;98794.47;;;5.83;83.49
42601;BME280;28229;48.856;9.088;2023-02-02T12:19:47;98791.22;;;5.89;84.65
42601;BME280;28229;48.856;9.088;2023-02-02T12:22:33;98786.31;;;5.86;85.02
42601;BME280;28229;48.856;9.088;2023-02-02T12:28:26;98805.59;;;5.77;85.86
42601;BME280;28229;48.856;9.088;2023-02-02T12:33:51;98785.69;;;5.76;86.16
42601;BME280;28229;48.856;9.088;2023-02-02T12:47:24;98797.13;;;5.58;86.92
42601;BME280;28229;48.856;9.088;2023-02-02T12:52:39;98803.63;;;5.54;88.17
42601;BME280;28229;48.856;9.088;2023-02-02T12:55:28;98806.41;;;5.52;88.38
42601;BME280;28229;48.856;9.088;2023-02-02T12:58:21;98817.03;;;5.51;88.02
42601;BME280;28229;48.856;9.088;2023-02-02T13:01:00;98806.59;;;5.51;87.66
42601;BME280;28229;48.856;9.088;2023-02-02T13:03:31;98816.69;;;5.54;88.70
42601;BME280;28229;48.856;9.088;2023-02-02T13:09:13;98826.66;;;5.59;87.22
42601;BME280;28229;48.856;9.088;2023-02-02T13:11:47;98816.03;;;5.52;87.25
42601;BME280;28229;48.856;9.088;2023-02-02T13:14:25;98818.66;;;5.52;88.26
42601;BME280;28229;48.856;9.088;2023-02-02T13:16:58;98814.75;;;5.48;88.83
42601;BME280;28229;48.856;9.088;2023-02-02T13:19:48;98811.13;;;5.49;88.38
42601;BME280;28229;48.856;9.088;2023-02-02T13:22:19;98807.91;;;5.55;88.70
42601;BME280;28229;48.856;9.088;2023-02-02T13:24:50;98814.41;;;5.59;88.49
42601;BME280;28229;48.856;9.088;2023-02-02T13:27:20;98797.78;;;5.52;88.90
42601;BME280;28229;48.856;9.088;2023-02-02T13:29:54;98813.13;;;5.63;88.32
42601;BME280;28229;48.856;9.088;2023-02-02T13:32:26;98810.31;;;5.65;88.40
42601;BME280;28229;48.856;9.088;2023-02-02T13:35:01;98794.84;;;5.63;88.03
42601;BME280;28229;48.856;9.088;2023-02-02T13:37:48;98817.34;;;5.64;87.59
42601;BME280;28229;48.856;9.088;2023-02-02T13:40:38;98807.56;;;5.66;88.02
42601;BME280;28229;48.856;9.088;2023-02-02T13:55:29;98827.81;;;5.72;86.52
42601;BME280;28229;48.856;9.088;2023-02-02T14:00:47;98825.19;;;5.72;85.15
42601;BME280;28229;48.856;9.088;2023-02-02T14:08:47;98810.31;;;5.89;85.23
42601;BME280;28229;48.856;9.088;2023-02-02T14:11:19;98821.59;;;5.98;83.82
42601;BME280;28229;48.856;9.088;2023-02-02T14:13:48;98815.25;;;6.01;83.74
42601;BME280;28229;48.856;9.088;2023-02-02T14:19:01;98816.22;;;6.00;82.80
42601;BME280;28229;48.856;9.088;2023-02-02T14:26:54;98818.97;;;5.98;82.85
42601;BME280;28229;48.856;9.088;2023-02-02T14:32:01;98830.25;;;5.99;82.78
42601;BME280;28229;48.856;9.088;2023-02-02T14:34:38;98838.75;;;6.01;81.99
42601;BME280;28229;48.856;9.088;2023-02-02T14:45:33;98851.28;;;6.05;81.32
42601;BME280;28229;48.856;9.088;2023-02-02T14:48:01;98837.59;;;6.03;81.11
42601;BME280;28229;48.856;9.088;2023-02-02T14:53:06;98845.25;;;6.05;80.59
42601;BME280;28229;48.856;9.088;2023-02-02T15:06:37;98855.56;;;6.06;80.50
42601;BME280;28229;48.856;9.088;2023-02-02T15:17:02;98870.75;;;6.03;80.61
42601;BME280;28229;48.856;9.088;2023-02-02T15:19:34;98881.34;;;6.01;80.69
42601;BME280;28229;48.856;9.088;2023-02-02T15:22:32;98882.16;;;6.02;80.90
42601;BME280;28229;48.856;9.088;2023-02-02T15:25:05;98884.94;;;6.00;80.68
42601;BME280;28229;48.856;9.088;2023-02-02T15:27:37;98898.63;;;6.02;80.63
42601;BME280;28229;48.856;9.088;2023-02-02T15:30:07;98901.44;;;6.01;80.92
42601;BME280;28229;48.856;9.088;2023-02-02T15:32:34;98906.97;;;5.98;80.91